Time;durP1;ratioP1;P1;durP2;ratioP2;P2;SDS_P1;SDS_P2;PMS_P1;PMS_P2;Temp;Humidity;BMP_temperature;BMP_pressure;BME280_temperature;BME280_humidity;BME280_pressure;Samples;Min_cycle;Max_cycle;Signal;HPM_P1;HPM_P2
2022/03/09 00:00:45;;;;;;;2.05;1.40;;;23.90;56.40;;;;;;4933839;29;20259;-57
2022/03/09 00:03:16;;;;;;;3.38;1.60;;;23.90;56.40;;;;;;4933561;29;20227;-57
2022/03/09 00:05:48;;;;;;;2.97;1.48;;;23.90;56.50;;;;;;4933063;29;20227;-57
2022/03/09 00:08:19;;;;;;;3.40;1.65;;;24.00;56.60;;;;;;4933136;29;20200;-57
2022/03/09 00:10:50;;;;;;;2.63;1.42;;;24.00;56.60;;;;;;4932472;29;20191;-57
2022/03/09 00:13:20;;;;;;;3.53;1.80;;;24.10;56.50;;;;;;4933282;29;20626;-58
2022/03/09 00:15:51;;;;;;;2.05;1.40;;;24.10;56.40;;;;;;4933897;29;20196;-56
2022/03/09 00:18:22;;;;;;;2.47;1.42;;;24.10;56.30;;;;;;4933842;29;20192;-58
2022/03/09 00:20:54;;;;;;;1.88;1.60;;;24.20;56.30;;;;;;4932540;29;20791;-57
2022/03/09 00:23:25;;;;;;;2.80;1.75;;;24.20;56.30;;;;;;4932920;29;20258;-58
2022/03/09 00:25:55;;;;;;;3.60;1.50;;;24.20;56.30;;;;;;4932610;29;20215;-57
2022/03/09 00:28:26;;;;;;;2.75;1.33;;;24.30;56.90;;;;;;4932457;29;20207;-57
2022/03/09 00:30:57;;;;;;;3.53;1.45;;;24.30;56.20;;;;;;4932390;29;20208;-59
2022/03/09 00:33:27;;;;;;;2.30;1.50;;;24.30;56.40;;;;;;4932477;29;20231;-58
2022/03/09 00:35:59;;;;;;;1.55;1.35;;;24.40;56.40;;;;;;4931926;29;20254;-58
2022/03/09 00:38:30;;;;;;;2.50;1.65;;;24.40;56.40;;;;;;4932185;29;20199;-56
2022/03/09 00:41:01;;;;;;;3.13;1.80;;;24.50;56.40;;;;;;4932322;29;20199;-57
2022/03/09 00:43:31;;;;;;;2.50;1.80;;;24.50;56.40;;;;;;4932585;29;20219;-59
2022/03/09 00:46:02;;;;;;;3.63;1.90;;;24.50;56.60;;;;;;4931642;29;20200;-57
2022/03/09 00:48:32;;;;;;;3.83;1.65;;;24.50;56.60;;;;;;4932216;29;20670;-59
2022/03/09 00:51:05;;;;;;;4.15;2.15;;;24.60;56.70;;;;;;4932409;29;20266;-59
2022/03/09 00:53:36;;;;;;;3.38;2.03;;;24.60;56.80;;;;;;4932959;29;20295;-57
2022/03/09 00:56:07;;;;;;;3.15;1.90;;;24.60;56.80;;;;;;4932283;29;20360;-58
2022/03/09 00:58:38;;;;;;;2.67;1.83;;;24.70;56.70;;;;;;4932549;29;20274;-58
2022/03/09 01:01:08;;;;;;;3.15;2.13;;;24.70;56.80;;;;;;4931668;29;20195;-58
2022/03/09 01:03:39;;;;;;;2.55;1.80;;;24.70;56.90;;;;;;4974033;23;20694;-47
2022/03/09 01:06:12;;;;;;;2.45;1.88;;;24.70;56.60;;;;;;4969143;28;20198;-47
2022/03/09 01:08:42;;;;;;;3.30;2.03;;;24.80;56.40;;;;;;4970512;28;20206;-47
2022/03/09 01:11:13;;;;;;;3.15;1.75;;;24.80;56.40;;;;;;4970617;28;20209;-50
2022/03/09 01:13:43;;;;;;;2.63;1.98;;;24.90;56.30;;;;;;4969757;28;20269;-49
2022/03/09 01:16:14;;;;;;;3.40;2.08;;;24.90;56.30;;;;;;4970101;28;20190;-48
2022/03/09 01:18:45;;;;;;;2.42;2.05;;;24.90;56.20;;;;;;4969481;28;20257;-50
2022/03/09 01:21:17;;;;;;;2.78;2.20;;;25.00;56.30;;;;;;4969584;28;20705;-49
2022/03/09 01:23:48;;;;;;;1.75;1.65;;;25.00;56.20;;;;;;4969437;28;20222;-49
2022/03/09 01:26:18;;;;;;;3.97;2.30;;;25.00;56.30;;;;;;4969999;28;20190;-45
2022/03/09 01:28:49;;;;;;;3.75;2.30;;;25.10;56.20;;;;;;4969751;28;20207;-48
2022/03/09 01:31:19;;;;;;;4.30;2.25;;;25.10;56.20;;;;;;4970599;28;20202;-48
2022/03/09 01:33:50;;;;;;;2.38;1.83;;;25.10;56.70;;;;;;4970232;28;20218;-46
2022/03/09 01:36:23;;;;;;;2.88;2.20;;;25.10;56.20;;;;;;4969218;28;20245;-51
2022/03/09 01:38:53;;;;;;;3.15;2.20;;;25.20;56.30;;;;;;4968681;28;20203;-51
2022/03/09 01:41:24;;;;;;;2.88;2.55;;;25.20;56.30;;;;;;4970069;28;20198;-52
2022/03/09 01:44:09;;;;;;;3.90;2.40;;;25.20;56.20;;;;;;4984249;28;20279;-48
2022/03/09 01:46:40;;;;;;;5.30;2.40;;;25.20;56.30;;;;;;4988059;28;20205;-48
2022/03/09 01:49:12;;;;;;;3.88;2.25;;;25.30;56.30;;;;;;4970158;28;20194;-47
2022/03/09 01:51:46;;;;;;;4.18;2.45;;;25.30;56.40;;;;;;4969581;28;20261;-47
2022/03/09 01:54:17;;;;;;;4.40;2.63;;;25.30;56.50;;;;;;4969733;28;20218;-51
2022/03/09 01:56:48;;;;;;;3.47;2.75;;;25.30;56.40;;;;;;4969256;28;20194;-48
2022/03/09 01:59:19;;;;;;;4.00;2.33;;;25.30;56.20;;;;;;4969884;28;20638;-47
2022/03/09 02:01:50;;;;;;;3.80;2.22;;;25.40;56.20;;;;;;4969878;28;20225;-48
2022/03/09 02:04:21;;;;;;;4.05;2.60;;;25.40;56.10;;;;;;4969797;28;20285;-46
2022/03/09 02:06:53;;;;;;;3.53;2.60;;;25.40;56.10;;;;;;4969250;28;20194;-48
2022/03/09 02:12:11;;;;;;;3.03;2.50;;;25.50;56.00;;;;;;4969297;28;20562;-48
2022/03/09 02:14:43;;;;;;;5.10;2.63;;;25.50;56.00;;;;;;4968462;28;20186;-49
2022/03/09 02:17:15;;;;;;;5.25;2.80;;;25.60;56.00;;;;;;4969595;28;20199;-48
2022/03/09 02:19:47;;;;;;;3.42;2.00;;;25.60;56.00;;;;;;4968634;28;20203;-47
2022/03/09 02:22:37;;;;;;;4.25;2.30;;;25.60;55.90;;;;;;4968820;28;20214;-46
2022/03/09 02:25:09;;;;;;;3.95;2.63;;;25.60;55.90;;;;;;4969099;28;20206;-50
2022/03/09 02:27:40;;;;;;;5.55;2.30;;;25.60;55.90;;;;;;4968871;28;20198;-48
2022/03/09 02:30:12;;;;;;;4.35;2.53;;;25.60;55.90;;;;;;4968355;28;20285;-47
2022/03/09 02:32:47;;;;;;;3.03;2.30;;;25.70;55.90;;;;;;4968083;28;20218;-49
2022/03/09 02:35:19;;;;;;;2.83;2.30;;;25.70;55.90;;;;;;4968477;28;20594;-51
2022/03/09 02:37:52;;;;;;;3.65;2.28;;;25.80;56.00;;;;;;4967624;28;20258;-52
2022/03/09 02:40:23;;;;;;;4.68;2.80;;;25.80;56.00;;;;;;4968406;28;20261;-47
2022/03/09 02:42:53;;;;;;;4.28;2.72;;;25.70;55.90;;;;;;4967981;28;20213;-49
2022/03/09 02:45:24;;;;;;;5.65;2.60;;;25.80;56.00;;;;;;4969445;28;20194;-48
2022/03/09 02:47:56;;;;;;;3.80;2.50;;;25.80;55.90;;;;;;4969377;28;20198;-47
2022/03/09 02:50:27;;;;;;;4.30;2.50;;;25.80;55.80;;;;;;4968692;28;20247;-48
2022/03/09 02:52:59;;;;;;;3.42;2.35;;;25.80;55.70;;;;;;4968431;28;20256;-47
2022/03/09 02:55:30;;;;;;;4.57;2.90;;;25.90;55.80;;;;;;4968600;28;20622;-47
2022/03/09 02:58:00;;;;;;;3.67;2.67;;;25.90;55.70;;;;;;4968100;28;20686;-48
2022/03/09 03:00:31;;;;;;;3.63;2.78;;;25.90;55.70;;;;;;4968885;28;20257;-48
2022/03/09 03:03:01;;;;;;;2.55;2.35;;;25.90;55.70;;;;;;4969316;28;20230;-46
2022/03/09 03:05:32;;;;;;;3.88;2.90;;;25.90;55.80;;;;;;4969269;28;20202;-47
2022/03/09 03:08:04;;;;;;;4.63;2.70;;;26.00;55.70;;;;;;4969067;28;20210;-45
2022/03/09 03:10:35;;;;;;;4.10;3.13;;;26.00;55.60;;;;;;4972359;28;20248;-48
2022/03/09 03:13:06;;;;;;;4.78;3.20;;;26.00;55.60;;;;;;4972579;28;20725;-49
2022/03/09 03:15:36;;;;;;;4.20;2.80;;;26.00;55.60;;;;;;4972045;28;20210;-46
2022/03/09 03:18:07;;;;;;;3.90;3.33;;;26.00;55.50;;;;;;4972621;28;20257;-48
2022/03/09 03:20:37;;;;;;;8.18;3.00;;;26.10;55.60;;;;;;4972033;28;20191;-47
2022/03/09 03:23:10;;;;;;;5.60;3.55;;;26.10;55.60;;;;;;4972096;28;20214;-47
2022/03/09 03:25:41;;;;;;;3.80;3.10;;;26.10;55.50;;;;;;4972295;28;20190;-45
2022/03/09 03:28:11;;;;;;;4.28;3.03;;;26.10;55.50;;;;;;4972147;28;20198;-46
2022/03/09 03:30:42;;;;;;;5.03;3.25;;;26.10;55.40;;;;;;4971865;28;20226;-46
2022/03/09 03:33:12;;;;;;;4.85;3.50;;;26.10;55.40;;;;;;4972768;28;20222;-48
2022/03/09 03:35:43;;;;;;;4.75;3.47;;;26.10;55.30;;;;;;4972539;28;20276;-46
2022/03/09 03:38:16;;;;;;;4.75;3.55;;;26.20;55.30;;;;;;4971309;28;20283;-49
2022/03/09 03:40:47;;;;;;;4.13;3.40;;;26.20;55.40;;;;;;4971913;28;20206;-50
2022/03/09 03:43:17;;;;;;;4.32;3.58;;;26.20;55.30;;;;;;4969925;28;20214;-46
2022/03/09 03:45:48;;;;;;;5.00;3.80;;;26.20;55.20;;;;;;4971663;28;20198;-47
2022/03/09 03:48:19;;;;;;;6.55;3.72;;;26.20;55.10;;;;;;4971928;28;20284;-47
2022/03/09 03:50:49;;;;;;;3.60;3.30;;;26.20;55.00;;;;;;4971834;28;20226;-46
2022/03/09 03:53:22;;;;;;;4.40;3.50;;;26.30;55.00;;;;;;4971561;28;20258;-48
2022/03/09 03:55:52;;;;;;;4.38;3.78;;;26.30;54.90;;;;;;4971884;28;20272;-45
2022/03/09 03:58:23;;;;;;;4.43;3.70;;;26.30;54.90;;;;;;4972040;28;20206;-45
2022/03/09 04:00:54;;;;;;;5.07;3.58;;;26.30;54.90;;;;;;4972421;28;20199;-46
2022/03/09 04:03:24;;;;;;;4.07;3.47;;;26.30;54.80;;;;;;4972774;28;20638;-49
2022/03/09 04:05:55;;;;;;;5.07;3.58;;;26.40;54.80;;;;;;4971467;28;20199;-45
2022/03/09 04:08:27;;;;;;;5.05;3.95;;;26.30;54.50;;;;;;4970984;28;20199;-45
2022/03/09 04:10:58;;;;;;;4.30;3.42;;;26.40;54.50;;;;;;4971669;28;20769;-44
2022/03/09 04:13:28;;;;;;;4.55;3.35;;;26.40;54.40;;;;;;4971485;28;20753;-45
2022/03/09 04:15:59;;;;;;;3.50;3.20;;;26.30;54.30;;;;;;4971531;28;20198;-44
2022/03/09 04:18:30;;;;;;;3.47;3.17;;;26.40;54.30;;;;;;4971709;28;20206;-44
2022/03/09 04:21:01;;;;;;;4.00;3.60;;;26.40;54.20;;;;;;4970897;28;20202;-47
2022/03/09 04:23:33;;;;;;;3.78;3.33;;;26.40;54.30;;;;;;4971130;28;20564;-46
2022/03/09 04:26:06;;;;;;;4.13;3.33;;;26.40;54.30;;;;;;4971812;28;20198;-46
2022/03/09 04:28:37;;;;;;;4.00;3.60;;;26.40;54.30;;;;;;4971147;28;20273;-47
2022/03/09 04:31:08;;;;;;;4.15;3.33;;;26.40;54.20;;;;;;4971715;28;20281;-44
2022/03/09 04:33:38;;;;;;;4.53;3.30;;;26.40;54.10;;;;;;4970733;28;20221;-45
2022/03/09 04:36:09;;;;;;;3.50;3.28;;;26.40;54.20;;;;;;4970038;28;20210;-45
2022/03/09 04:38:41;;;;;;;3.67;3.20;;;26.40;54.20;;;;;;4969940;28;20213;-46
2022/03/09 04:41:12;;;;;;;4.07;3.30;;;26.40;54.10;;;;;;4970775;28;20194;-44
2022/03/09 04:43:43;;;;;;;3.83;3.53;;;26.40;54.10;;;;;;4970908;28;20237;-44
2022/03/09 04:46:13;;;;;;;4.82;3.50;;;26.30;54.00;;;;;;4970811;28;20194;-47
2022/03/09 04:48:44;;;;;;;3.88;3.58;;;26.30;54.10;;;;;;4970833;28;20253;-49
2022/03/09 04:51:14;;;;;;;3.53;3.25;;;26.30;54.10;;;;;;4970629;28;20238;-45
2022/03/09 04:53:47;;;;;;;3.83;3.45;;;26.30;54.10;;;;;;4970275;28;20214;-46
2022/03/09 04:56:18;;;;;;;3.75;3.45;;;26.30;54.10;;;;;;4970422;28;20199;-47
2022/03/09 04:58:48;;;;;;;4.40;3.40;;;26.30;54.00;;;;;;4970635;28;20292;-46
2022/03/09 05:01:19;;;;;;;3.60;3.30;;;26.30;54.00;;;;;;4988042;28;20209;-46
2022/03/09 05:03:50;;;;;;;3.65;3.35;;;26.30;53.90;;;;;;5001506;23;20292;-62
2022/03/09 05:06:21;;;;;;;3.90;3.60;;;26.30;53.90;;;;;;4973310;28;20194;-59
2022/03/09 05:08:53;;;;;;;3.78;3.13;;;26.30;53.90;;;;;;4980668;28;20202;-56
2022/03/09 05:11:24;;;;;;;3.65;3.35;;;26.30;53.80;;;;;;4990248;28;20293;-54
2022/03/09 05:13:54;;;;;;;3.92;3.58;;;26.20;53.80;;;;;;4990398;28;20260;-50
2022/03/09 05:16:25;;;;;;;4.13;3.38;;;26.20;53.80;;;;;;4990118;28;20201;-52
2022/03/09 05:18:55;;;;;;;5.25;3.35;;;26.20;53.90;;;;;;4991138;28;20761;-47
2022/03/09 05:21:26;;;;;;;4.57;3.70;;;26.20;53.90;;;;;;4990886;28;20205;-47
2022/03/09 05:23:58;;;;;;;3.38;3.08;;;26.20;53.80;;;;;;4990882;28;20217;-54
2022/03/09 05:26:29;;;;;;;3.70;3.33;;;26.20;53.80;;;;;;4991067;28;20201;-48
2022/03/09 05:29:00;;;;;;;3.85;3.55;;;26.10;53.80;;;;;;4990952;28;20197;-60
2022/03/09 05:31:30;;;;;;;3.45;3.15;;;26.10;53.80;;;;;;4989563;28;20676;-62
2022/03/09 05:34:01;;;;;;;3.47;3.17;;;26.10;53.80;;;;;;4989003;28;20221;-59
2022/03/09 05:36:31;;;;;;;3.55;3.25;;;26.10;53.80;;;;;;4988828;28;20198;-61
2022/03/09 05:39:04;;;;;;;3.60;3.30;;;26.10;53.90;;;;;;4991197;28;20284;-64
2022/03/09 05:41:36;;;;;;;3.25;2.95;;;26.00;53.90;;;;;;4991368;28;20202;-63
2022/03/09 05:44:06;;;;;;;3.60;3.30;;;26.00;54.00;;;;;;4990852;28;20221;-63
2022/03/09 05:46:37;;;;;;;3.35;3.00;;;26.00;54.00;;;;;;4990865;28;20197;-64
2022/03/09 05:49:07;;;;;;;3.85;3.10;;;26.00;54.00;;;;;;4990931;28;20198;-63
2022/03/09 05:51:38;;;;;;;3.42;2.90;;;26.00;53.90;;;;;;4990359;28;20236;-63
2022/03/09 05:54:11;;;;;;;3.50;3.20;;;26.00;53.90;;;;;;4987708;28;20728;-63
2022/03/09 05:56:42;;;;;;;4.93;2.95;;;25.90;53.90;;;;;;4990236;28;20198;-61
2022/03/09 05:59:12;;;;;;;2.92;2.70;;;25.90;53.90;;;;;;4990653;28;20288;-63
2022/03/09 06:01:43;;;;;;;3.25;2.95;;;25.90;53.90;;;;;;4990091;28;20202;-62
2022/03/09 06:04:14;;;;;;;3.60;3.30;;;25.90;53.90;;;;;;4967576;23;20239;-48
2022/03/09 06:06:44;;;;;;;3.30;2.70;;;25.80;54.10;;;;;;4951603;28;20199;-47
2022/03/09 06:09:17;;;;;;;3.42;3.13;;;25.80;54.00;;;;;;4951451;28;20620;-47
2022/03/09 06:11:47;;;;;;;3.40;3.10;;;25.80;54.00;;;;;;4951683;28;20238;-48
2022/03/09 06:14:18;;;;;;;3.15;2.85;;;25.80;54.00;;;;;;4951337;28;20219;-49
2022/03/09 06:16:48;;;;;;;3.67;2.90;;;25.70;54.00;;;;;;4946549;28;20195;-49
2022/03/09 06:19:20;;;;;;;3.22;2.92;;;25.70;54.00;;;;;;4941647;29;20248;-48
2022/03/09 06:21:50;;;;;;;3.30;3.00;;;25.70;54.00;;;;;;4950630;28;20191;-48
2022/03/09 06:24:23;;;;;;;3.45;2.97;;;25.70;54.20;;;;;;4951248;28;20559;-47
2022/03/09 06:26:53;;;;;;;2.90;2.67;;;25.70;54.10;;;;;;4951728;28;20198;-46
2022/03/09 06:29:24;;;;;;;3.00;2.70;;;25.70;54.10;;;;;;4951965;28;20199;-51
2022/03/09 06:31:55;;;;;;;3.00;2.80;;;25.60;54.40;;;;;;4950652;28;20778;-48
2022/03/09 06:34:26;;;;;;;2.90;2.70;;;25.60;54.10;;;;;;4951729;28;20209;-46
2022/03/09 06:36:57;;;;;;;2.97;2.67;;;25.60;54.10;;;;;;4951137;28;20199;-50
2022/03/09 06:39:30;;;;;;;2.88;2.67;;;25.60;54.10;;;;;;4951566;28;20256;-47
2022/03/09 06:42:00;;;;;;;2.92;2.70;;;25.60;54.10;;;;;;4951487;28;20262;-47
2022/03/09 06:44:31;;;;;;;3.17;2.88;;;25.50;54.10;;;;;;4954590;28;20199;-49
2022/03/09 06:47:04;;;;;;;3.15;2.85;;;25.50;54.10;;;;;;4954458;28;20201;-47
2022/03/09 06:49:35;;;;;;;3.28;2.97;;;25.50;54.20;;;;;;4950667;28;20262;-48
2022/03/09 06:52:05;;;;;;;2.92;2.67;;;25.50;54.10;;;;;;4950708;29;20289;-49
2022/03/09 06:54:38;;;;;;;3.10;2.80;;;25.50;54.20;;;;;;4941265;28;20196;-48
2022/03/09 06:57:09;;;;;;;3.33;3.03;;;25.50;54.20;;;;;;4936091;29;20204;-52
2022/03/09 06:59:42;;;;;;;2.85;2.65;;;25.40;54.20;;;;;;4936075;29;20250;-47
2022/03/09 07:02:12;;;;;;;2.90;2.65;;;25.40;54.10;;;;;;4949209;29;20199;-47
2022/03/09 07:04:43;;;;;;;3.00;2.70;;;25.40;54.10;;;;;;4955390;28;20198;-47
2022/03/09 07:07:13;;;;;;;2.88;2.67;;;25.40;54.20;;;;;;4954862;28;20202;-49
2022/03/09 07:09:46;;;;;;;3.47;2.92;;;25.30;54.10;;;;;;4954520;28;20195;-49
2022/03/09 07:12:18;;;;;;;5.20;2.80;;;25.30;54.10;;;;;;4954819;28;20226;-46
2022/03/09 07:14:48;;;;;;;3.00;2.70;;;25.30;54.10;;;;;;4955001;28;20250;-48
2022/03/09 07:17:19;;;;;;;3.67;3.17;;;25.30;54.10;;;;;;4954618;28;20199;-50
2022/03/09 07:19:51;;;;;;;3.60;2.80;;;25.30;54.10;;;;;;4954757;28;20210;-48
2022/03/09 07:22:21;;;;;;;3.08;2.78;;;25.20;54.00;;;;;;4954479;28;20219;-50
2022/03/09 07:24:54;;;;;;;3.58;2.88;;;25.20;54.00;;;;;;4954807;28;20246;-47
2022/03/09 07:27:24;;;;;;;3.00;2.80;;;25.20;54.00;;;;;;4954183;28;20203;-47
2022/03/09 07:29:55;;;;;;;3.70;2.65;;;25.10;54.00;;;;;;4954550;28;20653;-50
2022/03/09 07:32:25;;;;;;;2.90;2.70;;;25.10;54.00;;;;;;4937577;28;20232;-48
2022/03/09 07:34:56;;;;;;;2.90;2.63;;;25.10;54.10;;;;;;4935362;29;20260;-49
2022/03/09 07:37:26;;;;;;;3.20;3.00;;;25.10;54.20;;;;;;4934863;29;20255;-48
2022/03/09 07:39:59;;;;;;;3.45;3.15;;;25.10;54.20;;;;;;4934995;29;20199;-47
2022/03/09 07:42:29;;;;;;;2.90;2.60;;;25.10;54.20;;;;;;4934775;29;20263;-47
2022/03/09 07:45:00;;;;;;;2.90;2.70;;;25.10;54.20;;;;;;4935329;29;20248;-49
2022/03/09 07:47:31;;;;;;;3.13;2.70;;;25.10;54.20;;;;;;4947835;29;20266;-47
2022/03/09 07:50:03;;;;;;;3.05;2.70;;;25.00;54.10;;;;;;4954389;28;20718;-47
2022/03/09 07:52:34;;;;;;;2.90;2.63;;;25.00;54.10;;;;;;4953988;28;20297;-48
2022/03/09 07:55:07;;;;;;;3.42;2.80;;;25.00;54.20;;;;;;4953798;28;20259;-48
2022/03/09 07:57:38;;;;;;;3.00;2.70;;;25.00;54.20;;;;;;4954196;28;20195;-49
2022/03/09 08:00:09;;;;;;;3.00;2.80;;;24.90;54.10;;;;;;4954295;28;20199;-47
2022/03/09 08:02:40;;;;;;;2.58;2.35;;;24.90;54.20;;;;;;4966042;23;20237;-61
2022/03/09 08:05:11;;;;;;;3.08;2.80;;;24.90;54.20;;;;;;4953694;28;20203;-63
2022/03/09 08:07:42;;;;;;;3.80;2.63;;;24.90;54.30;;;;;;4953480;28;20207;-59
2022/03/09 08:10:14;;;;;;;3.50;2.88;;;24.90;54.30;;;;;;4953915;28;20195;-62
2022/03/09 08:12:45;;;;;;;3.25;2.95;;;24.90;54.30;;;;;;4954273;28;20303;-62
2022/03/09 08:15:15;;;;;;;3.30;2.50;;;24.80;54.20;;;;;;4954141;28;20199;-62
2022/03/09 08:17:46;;;;;;;3.00;2.72;;;24.80;54.20;;;;;;4967621;28;20741;-63
2022/03/09 08:20:17;;;;;;;3.28;2.80;;;24.80;54.20;;;;;;4972945;28;20253;-61
2022/03/09 08:22:47;;;;;;;2.97;2.75;;;24.80;54.20;;;;;;4952823;28;20769;-62
2022/03/09 08:25:20;;;;;;;3.03;2.72;;;24.80;54.30;;;;;;4953581;28;20202;-62
2022/03/09 08:27:50;;;;;;;2.70;2.50;;;24.70;54.30;;;;;;4953918;28;20680;-62
2022/03/09 08:30:21;;;;;;;3.13;2.78;;;24.70;54.30;;;;;;4953098;28;20258;-61
2022/03/09 08:32:51;;;;;;;2.67;2.40;;;24.70;54.30;;;;;;4966289;28;20644;-63
2022/03/09 08:35:22;;;;;;;2.88;2.67;;;24.70;54.30;;;;;;4972447;28;20202;-62
2022/03/09 08:37:53;;;;;;;2.58;2.38;;;24.70;54.30;;;;;;4972549;28;20677;-62
2022/03/09 08:40:25;;;;;;;3.30;2.95;;;24.70;54.30;;;;;;4972424;28;20198;-53
2022/03/09 08:42:56;;;;;;;3.15;2.85;;;24.60;54.30;;;;;;4972348;28;20273;-63
2022/03/09 08:45:27;;;;;;;3.15;2.85;;;24.60;54.30;;;;;;4972818;28;20237;-63
2022/03/09 08:47:57;;;;;;;2.97;2.78;;;24.60;54.30;;;;;;4965137;28;20198;-61
2022/03/09 08:50:28;;;;;;;3.08;2.63;;;24.60;54.40;;;;;;4972817;28;20209;-61
2022/03/09 08:52:59;;;;;;;2.75;2.50;;;24.60;54.40;;;;;;4954895;28;20231;-61
2022/03/09 08:55:31;;;;;;;2.72;2.53;;;24.50;54.40;;;;;;4952869;28;20206;-62
2022/03/09 08:58:02;;;;;;;2.80;2.60;;;24.50;54.40;;;;;;4953219;28;20206;-61
2022/03/09 09:00:33;;;;;;;2.75;2.55;;;24.50;54.40;;;;;;4952759;28;20545;-62
2022/03/09 09:03:03;;;;;;;2.33;2.13;;;24.50;54.40;;;;;;4970869;23;20301;-48
2022/03/09 09:05:34;;;;;;;2.90;2.70;;;24.50;54.40;;;;;;4952159;28;20481;-45
2022/03/09 09:08:05;;;;;;;2.60;2.40;;;24.50;54.40;;;;;;4952909;28;20210;-45
2022/03/09 09:10:37;;;;;;;2.63;2.42;;;24.50;54.40;;;;;;4950799;28;20203;-47
2022/03/09 09:13:09;;;;;;;2.67;2.45;;;24.50;54.60;;;;;;4950566;28;20947;-47
2022/03/09 09:15:39;;;;;;;3.33;2.50;;;24.50;54.60;;;;;;4952719;28;20789;-47
2022/03/09 09:18:10;;;;;;;3.90;2.85;;;24.40;54.50;;;;;;4966352;28;20206;-45
2022/03/09 09:20:41;;;;;;;2.92;2.67;;;24.40;54.50;;;;;;4971810;28;20202;-47
2022/03/09 09:23:11;;;;;;;2.97;2.30;;;24.40;54.60;;;;;;4952573;28;20309;-47
2022/03/09 09:25:44;;;;;;;2.70;2.50;;;24.40;54.60;;;;;;4952408;28;20202;-47
2022/03/09 09:28:15;;;;;;;2.95;2.72;;;24.40;54.60;;;;;;4949516;28;20258;-46
2022/03/09 09:30:46;;;;;;;2.58;2.38;;;24.30;54.60;;;;;;4949699;28;20195;-48
2022/03/09 09:33:16;;;;;;;3.10;2.80;;;24.30;54.60;;;;;;4946486;28;20286;-48
2022/03/09 09:35:47;;;;;;;3.15;2.30;;;24.30;54.60;;;;;;4952921;28;20194;-49
2022/03/09 09:38:18;;;;;;;2.80;2.50;;;24.30;54.60;;;;;;4950941;28;20661;-46
2022/03/09 09:40:55;;;;;;;2.75;2.45;;;24.30;54.60;;;;;;4946357;28;20277;-47
2022/03/09 09:43:26;;;;;;;2.83;2.40;;;24.30;54.60;;;;;;4950445;29;20301;-47
2022/03/09 09:45:57;;;;;;;2.40;2.20;;;24.30;54.70;;;;;;4950782;28;20254;-45
2022/03/09 09:48:28;;;;;;;2.40;2.17;;;24.20;54.70;;;;;;4950627;28;20195;-46
2022/03/09 09:50:59;;;;;;;2.72;2.53;;;24.20;54.70;;;;;;4950163;28;20278;-45
2022/03/09 09:53:33;;;;;;;3.25;2.58;;;24.20;54.70;;;;;;4950961;28;20765;-48
2022/03/09 09:56:06;;;;;;;2.38;2.17;;;24.20;54.70;;;;;;4949954;28;20201;-46
2022/03/09 09:58:37;;;;;;;2.85;2.58;;;24.20;54.70;;;;;;4950360;28;20207;-45
2022/03/09 10:01:08;;;;;;;2.80;2.47;;;24.20;54.70;;;;;;4950779;28;20203;-46
2022/03/09 11:03:22;;;;;;;2.20;2.00;;;23.80;54.70;;;;;;5627867;23;20667;-48
2022/03/09 11:05:58;;;;;;;2.35;2.10;;;23.80;54.80;;;;;;4949199;28;20633;-49
2022/03/09 11:08:35;;;;;;;2.10;2.00;;;23.80;54.80;;;;;;4945241;28;20730;-50
2022/03/09 11:11:14;;;;;;;2.38;2.17;;;23.80;54.80;;;;;;4950348;29;20612;-49
2022/03/09 11:13:47;;;;;;;2.92;2.17;;;23.80;54.80;;;;;;4939612;28;20223;-50
2022/03/09 11:16:25;;;;;;;2.33;2.22;;;23.80;54.90;;;;;;4949895;28;20486;-49
2022/03/09 11:19:01;;;;;;;2.25;2.05;;;23.80;54.90;;;;;;4947406;28;20678;-46
2022/03/09 11:21:32;;;;;;;2.42;2.22;;;23.80;54.90;;;;;;4934671;29;20211;-49
2022/03/09 11:24:06;;;;;;;2.28;2.08;;;23.80;54.90;;;;;;4931977;29;20215;-46
2022/03/09 11:26:38;;;;;;;2.40;2.20;;;23.70;54.90;;;;;;4934908;29;20254;-47
2022/03/09 11:29:12;;;;;;;2.72;2.30;;;23.70;55.00;;;;;;4952125;28;20287;-51
2022/03/09 11:31:51;;;;;;;2.40;2.20;;;23.70;55.00;;;;;;4955170;28;20671;-47
2022/03/09 11:34:41;;;;;;;2.47;2.17;;;23.70;55.00;;;;;;4948002;28;20215;-47
2022/03/09 11:37:13;;;;;;;2.60;2.25;;;23.70;55.00;;;;;;4935810;29;20294;-49
2022/03/09 11:39:44;;;;;;;2.70;2.13;;;23.70;55.00;;;;;;4935565;29;20259;-48
2022/03/09 11:42:35;;;;;;;2.42;2.08;;;23.70;55.00;;;;;;4936077;29;20199;-49
2022/03/09 11:45:41;;;;;;;2.83;2.13;;;23.70;55.00;;;;;;4935808;29;20200;-47
2022/03/09 11:48:14;;;;;;;2.38;2.17;;;23.60;55.00;;;;;;4936126;29;20207;-47
2022/03/09 11:51:17;;;;;;;2.28;2.10;;;23.60;54.90;;;;;;4935406;29;20294;-48
2022/03/09 11:53:54;;;;;;;2.50;2.20;;;23.60;55.00;;;;;;4935123;29;20241;-48
2022/03/09 11:56:42;;;;;;;2.42;2.22;;;23.60;55.00;;;;;;4935450;29;20243;-48
2022/03/09 11:59:25;;;;;;;2.53;2.33;;;23.60;55.00;;;;;;4935096;29;20657;-48
2022/03/09 12:04:59;;;;;;;2.30;2.10;;;23.50;55.00;;;;;;4953401;29;20207;-54
2022/03/09 12:07:51;;;;;;;2.53;2.33;;;23.60;55.00;;;;;;4954606;28;20199;-57
2022/03/09 12:10:23;;;;;;;2.38;2.17;;;23.50;55.00;;;;;;4954129;28;20203;-51
2022/03/09 12:13:13;;;;;;;2.20;2.00;;;23.50;55.00;;;;;;4954151;28;20266;-54
2022/03/09 12:16:07;;;;;;;2.10;2.00;;;23.50;55.10;;;;;;4954368;28;20269;-54
2022/03/09 12:18:43;;;;;;;2.20;2.00;;;23.50;55.10;;;;;;4954435;28;20624;-57
2022/03/09 12:21:15;;;;;;;2.40;2.20;;;23.50;55.10;;;;;;4954273;29;20207;-50
2022/03/09 12:24:26;;;;;;;2.53;2.33;;;23.50;55.10;;;;;;4953934;28;20226;-51
2022/03/09 12:26:58;;;;;;;2.45;2.25;;;23.40;55.10;;;;;;4953969;28;20203;-53
2022/03/09 12:29:40;;;;;;;2.40;2.28;;;23.40;55.10;;;;;;4954241;28;20207;-54
2022/03/09 12:32:13;;;;;;;2.40;2.20;;;23.40;55.10;;;;;;4953767;28;20207;-56
2022/03/09 12:34:45;;;;;;;1.98;1.85;;;23.40;55.10;;;;;;4953452;28;20670;-51
2022/03/09 12:37:17;;;;;;;2.25;2.05;;;23.50;55.20;;;;;;4953858;28;20253;-52
2022/03/09 12:39:56;;;;;;;2.30;2.10;;;23.40;55.10;;;;;;4953754;28;20258;-47
2022/03/09 12:42:31;;;;;;;3.03;2.33;;;23.40;55.10;;;;;;4953448;28;20516;-50
2022/03/09 12:45:04;;;;;;;2.20;2.10;;;23.40;55.10;;;;;;4953564;28;20209;-60
2022/03/09 12:47:36;;;;;;;2.00;1.90;;;23.40;55.10;;;;;;4953934;28;20290;-51
2022/03/09 12:50:07;;;;;;;2.00;1.90;;;23.40;55.10;;;;;;4953698;28;20294;-51
2022/03/09 12:52:46;;;;;;;2.28;2.08;;;23.40;55.10;;;;;;4953782;28;20234;-55
2022/03/09 12:55:21;;;;;;;2.03;1.90;;;23.40;55.70;;;;;;4953585;28;20567;-58
2022/03/09 12:57:59;;;;;;;2.22;2.10;;;23.40;55.20;;;;;;4953426;28;20282;-54
2022/03/09 13:00:30;;;;;;;2.25;2.08;;;23.30;55.20;;;;;;4953531;28;20249;-59
2022/03/09 13:03:02;;;;;;;2.30;2.10;;;23.40;55.20;;;;;;4970125;23;20230;-48
2022/03/09 13:05:35;;;;;;;2.17;1.90;;;23.30;55.10;;;;;;4972592;28;20554;-49
2022/03/09 13:08:08;;;;;;;2.17;2.08;;;23.30;55.20;;;;;;4972787;28;20205;-48
2022/03/09 13:10:43;;;;;;;2.17;2.00;;;23.30;55.20;;;;;;4972574;28;20210;-50
2022/03/09 13:13:15;;;;;;;2.28;2.10;;;23.30;55.30;;;;;;4972511;28;20229;-49
2022/03/09 13:15:48;;;;;;;2.40;2.08;;;23.30;55.20;;;;;;4972610;28;20202;-48
2022/03/09 13:18:27;;;;;;;2.30;2.17;;;23.30;55.20;;;;;;4972392;28;20720;-48
2022/03/09 13:20:59;;;;;;;2.40;2.20;;;23.30;55.20;;;;;;4972106;28;20241;-49
2022/03/09 13:23:32;;;;;;;2.05;1.95;;;23.30;55.20;;;;;;4972222;28;20214;-48
2022/03/09 13:26:16;;;;;;;2.10;1.90;;;23.30;55.20;;;;;;4971656;28;20621;-50
2022/03/09 13:28:50;;;;;;;2.00;1.90;;;23.20;55.10;;;;;;4971915;28;20253;-48
2022/03/09 13:31:21;;;;;;;2.05;1.90;;;23.20;55.10;;;;;;4972189;28;20194;-51
2022/03/09 13:33:53;;;;;;;2.63;2.08;;;23.20;55.10;;;;;;4972178;28;20325;-49
2022/03/09 13:36:23;;;;;;;2.92;2.25;;;23.20;55.20;;;;;;4971814;28;20208;-46
2022/03/09 13:39:02;;;;;;;2.20;2.10;;;23.20;55.20;;;;;;4972066;28;20206;-50
2022/03/09 13:41:40;;;;;;;2.13;1.98;;;23.20;55.20;;;;;;4972269;28;20202;-50
2022/03/09 13:44:30;;;;;;;1.95;1.85;;;23.20;55.20;;;;;;4971551;28;20224;-52
2022/03/09 13:47:06;;;;;;;1.90;1.80;;;23.20;55.30;;;;;;4972400;28;20198;-52
2022/03/09 13:49:50;;;;;;;2.53;2.33;;;23.20;55.30;;;;;;4971818;28;20194;-48
2022/03/09 13:52:31;;;;;;;1.88;1.77;;;23.20;55.30;;;;;;4971327;28;20198;-48
2022/03/09 13:55:03;;;;;;;1.95;1.85;;;23.10;55.30;;;;;;4971878;28;20198;-46
2022/03/09 13:57:35;;;;;;;2.10;2.00;;;23.10;55.30;;;;;;4971889;28;20202;-50
2022/03/09 14:00:27;;;;;;;2.30;2.10;;;23.10;55.30;;;;;;4971957;28;20257;-49
2022/03/09 14:05:37;;;;;;;2.50;2.30;;;23.10;56.00;;;;;;5666783;23;20225;-57
2022/03/09 14:08:11;;;;;;;1.90;1.80;;;23.10;55.40;;;;;;4971108;28;20512;-60
2022/03/09 14:10:47;;;;;;;2.00;1.60;;;23.10;55.40;;;;;;4969470;28;20574;-55
2022/03/09 14:13:21;;;;;;;2.05;1.85;;;23.10;56.00;;;;;;4970606;28;20628;-61
2022/03/09 14:15:59;;;;;;;2.05;1.85;;;23.00;55.40;;;;;;4972042;28;20535;-57
2022/03/09 14:18:33;;;;;;;2.00;1.90;;;23.00;55.40;;;;;;4971782;28;20346;-61
2022/03/09 14:21:07;;;;;;;2.05;1.95;;;23.10;55.40;;;;;;4971760;28;20584;-59
2022/03/09 14:23:41;;;;;;;2.95;2.20;;;23.00;55.40;;;;;;4971354;28;20547;-61